South Boardman, Michigan
Current Conditions -  °F | °C
As of 6:53 PM on Sunday 21 Dec 2014 (Local Time) from KTVC Reporting Station
Overcast Overcast  
Wind Chill: 27°   Ceiling: 4200
Heat Index: 34°   Visibility: 8mi
Dew Point: 27°   Wind: 8mph
Humidity: 75%   Direction: 140°SE
Pressure: 30.11"   Gusts: NA
Location:  44.64°N, 85.28°W
Report Text: KTVC 212353Z 14007KT 110V170 8SM OVC042 01/M03 A3011 RMK AO2 SLP203 4/002 T00111028 10017 20011 50000
Loading
Personal Weather Stations






























Interactive Weather Map New forecast layout! Learn more

10-Day Weather Forecast

Advertisements
Track Severe Weather on mobile